Time;durP1;ratioP1;P1;durP2;ratioP2;P2;SDS_P1;SDS_P2;PMS_P1;PMS_P2;Temp;Humidity;BMP_temperature;BMP_pressure;BME280_temperature;BME280_humidity;BME280_pressure;Samples;Min_cycle;Max_cycle;Signal;HPM_P1;HPM_P2
2021/07/29 00:00:35;;;;;;;3.47;2.45;;;17.20;99.90;;;;;;5031759;28;20032;-71
2021/07/29 00:03:02;;;;;;;7.25;3.03;;;17.20;99.90;;;;;;5033739;28;20074;-70
2021/07/29 00:05:28;;;;;;;3.53;2.47;;;17.30;99.90;;;;;;5032549;28;20037;-71
2021/07/29 00:07:54;;;;;;;3.25;2.75;;;17.30;99.90;;;;;;5032370;28;20040;-71
2021/07/29 00:10:20;;;;;;;3.97;2.45;;;17.20;99.90;;;;;;5032775;28;20037;-70
2021/07/29 00:12:47;;;;;;;3.90;2.55;;;17.20;99.90;;;;;;5032574;28;20037;-70
2021/07/29 00:15:15;;;;;;;5.10;2.83;;;17.30;99.90;;;;;;5031915;28;20025;-71
2021/07/29 00:20:24;;;;;;;3.75;2.70;;;17.20;99.90;;;;;;5030352;28;20029;-71
2021/07/29 00:22:57;;;;;;;3.20;2.67;;;17.20;99.90;;;;;;5032967;28;20060;-70
2021/07/29 00:25:24;;;;;;;5.30;2.63;;;17.30;99.90;;;;;;5029975;28;20022;-70
2021/07/29 00:27:51;;;;;;;2.53;2.33;;;17.20;99.90;;;;;;5030909;28;20025;-70
2021/07/29 00:30:19;;;;;;;4.60;3.00;;;17.20;99.90;;;;;;5031893;28;20049;-70
2021/07/29 00:32:45;;;;;;;2.55;2.35;;;17.20;99.90;;;;;;5031110;28;20036;-70
2021/07/29 00:35:14;;;;;;;4.60;2.50;;;17.20;99.90;;;;;;5031022;28;20037;-70
2021/07/29 00:37:40;;;;;;;2.88;2.65;;;17.20;99.90;;;;;;5031528;28;20072;-70
2021/07/29 00:40:07;;;;;;;3.65;2.88;;;17.10;99.90;;;;;;5031834;28;20021;-70
2021/07/29 00:42:32;;;;;;;5.15;2.63;;;17.10;99.90;;;;;;5030531;28;20389;-70
2021/07/29 00:44:58;;;;;;;2.85;2.55;;;17.00;99.90;;;;;;5034221;28;20026;-70
2021/07/29 00:47:24;;;;;;;2.70;2.50;;;17.00;99.90;;;;;;5031816;28;20524;-70
2021/07/29 00:49:50;;;;;;;3.17;2.88;;;16.90;99.90;;;;;;5030699;28;20029;-70
2021/07/29 00:52:20;;;;;;;3.38;3.08;;;16.90;99.90;;;;;;5031196;28;20021;-70
2021/07/29 00:54:46;;;;;;;3.07;2.60;;;16.90;99.90;;;;;;5030651;28;20031;-70
2021/07/29 00:57:12;;;;;;;3.60;2.70;;;16.90;99.90;;;;;;5031887;28;20068;-70
2021/07/29 00:59:39;;;;;;;3.72;2.45;;;16.80;99.90;;;;;;5031634;28;20026;-70
2021/07/29 01:02:04;;;;;;;4.07;2.53;;;16.80;99.90;;;;;;5032375;28;20034;-70
2021/07/29 01:04:30;;;;;;;4.05;2.60;;;16.80;99.90;;;;;;5050177;28;20486;-70
2021/07/29 01:06:56;;;;;;;3.90;2.92;;;16.80;99.90;;;;;;5036946;28;20029;-70
2021/07/29 01:09:22;;;;;;;2.65;2.45;;;16.80;99.90;;;;;;5031922;28;20037;-70
2021/07/29 01:11:48;;;;;;;5.50;2.80;;;16.80;99.90;;;;;;5031491;28;20029;-70
2021/07/29 01:14:14;;;;;;;2.75;2.55;;;16.80;99.90;;;;;;5031098;28;20075;-70
2021/07/29 01:16:41;;;;;;;3.88;2.88;;;16.70;99.90;;;;;;5020243;28;20021;-70
2021/07/29 01:19:07;;;;;;;3.80;3.00;;;16.80;99.90;;;;;;5052387;28;20033;-70
2021/07/29 01:21:34;;;;;;;3.08;2.55;;;16.80;99.90;;;;;;5051729;28;20485;-70
2021/07/29 01:24:00;;;;;;;2.97;2.75;;;16.70;99.90;;;;;;5033987;28;20530;-70
2021/07/29 01:26:29;;;;;;;3.72;2.60;;;16.70;99.90;;;;;;5030919;28;20112;-70
2021/07/29 01:28:58;;;;;;;4.47;2.90;;;16.70;99.90;;;;;;5046779;28;20025;-70
2021/07/29 01:31:26;;;;;;;5.97;3.10;;;16.70;99.90;;;;;;5051818;28;20052;-70
2021/07/29 01:33:53;;;;;;;5.72;2.90;;;16.70;99.90;;;;;;5051184;28;20024;-70
2021/07/29 01:36:19;;;;;;;4.50;2.60;;;16.60;99.90;;;;;;5052047;28;20486;-70
2021/07/29 01:38:44;;;;;;;3.17;2.88;;;16.60;99.90;;;;;;5050324;28;20075;-70
2021/07/29 01:41:10;;;;;;;4.63;3.05;;;16.60;99.90;;;;;;5051898;28;20033;-70
2021/07/29 01:43:36;;;;;;;3.45;3.15;;;16.60;99.90;;;;;;5049971;28;20029;-70
2021/07/29 01:46:01;;;;;;;3.15;2.58;;;16.60;99.90;;;;;;5051390;28;20037;-70
2021/07/29 01:48:28;;;;;;;5.93;3.03;;;16.50;99.90;;;;;;5041136;28;20037;-70
2021/07/29 01:50:54;;;;;;;4.85;3.05;;;16.50;99.90;;;;;;5031345;28;20051;-71
2021/07/29 01:53:20;;;;;;;3.97;3.15;;;16.50;99.90;;;;;;5032046;28;20542;-70
2021/07/29 01:55:47;;;;;;;5.85;3.05;;;16.50;99.90;;;;;;5030757;28;20026;-70
2021/07/29 01:58:14;;;;;;;4.05;3.20;;;16.50;99.90;;;;;;5039356;28;20025;-70
2021/07/29 02:00:41;;;;;;;4.38;2.78;;;16.50;99.90;;;;;;5042346;28;20109;-70
2021/07/29 02:03:07;;;;;;;3.60;3.10;;;16.50;99.90;;;;;;5034678;28;20032;-70
2021/07/29 02:05:33;;;;;;;4.97;3.15;;;16.50;99.90;;;;;;5049827;28;20037;-70
2021/07/29 02:07:59;;;;;;;4.93;3.33;;;16.50;99.90;;;;;;5031952;28;20030;-70
2021/07/29 02:10:26;;;;;;;6.80;3.05;;;16.40;99.90;;;;;;5034045;28;20033;-70
2021/07/29 02:12:54;;;;;;;4.28;3.05;;;16.40;99.90;;;;;;5050437;28;20064;-70
2021/07/29 02:15:20;;;;;;;5.47;3.80;;;16.40;99.90;;;;;;5051350;28;20413;-70
2021/07/29 02:17:46;;;;;;;5.32;3.75;;;16.40;99.90;;;;;;5050124;28;20154;-70
2021/07/29 02:20:13;;;;;;;4.75;3.60;;;16.30;99.90;;;;;;5051707;28;20120;-70
2021/07/29 02:22:39;;;;;;;5.30;3.40;;;16.30;99.90;;;;;;5050947;28;20033;-70
2021/07/29 02:25:07;;;;;;;4.60;3.35;;;16.30;99.90;;;;;;5051765;28;20056;-70
2021/07/29 02:27:33;;;;;;;4.70;3.45;;;16.30;99.90;;;;;;5035746;28;20368;-69
2021/07/29 02:29:59;;;;;;;3.42;3.13;;;16.30;99.90;;;;;;5031610;28;20414;-70
2021/07/29 02:32:25;;;;;;;6.75;3.72;;;16.30;99.90;;;;;;5033010;28;20032;-71
2021/07/29 02:34:52;;;;;;;4.57;3.78;;;16.20;99.90;;;;;;5030954;28;20036;-70
2021/07/29 02:37:20;;;;;;;5.95;4.13;;;16.20;99.90;;;;;;5045709;28;20033;-70
2021/07/29 02:39:46;;;;;;;8.05;4.50;;;16.10;99.90;;;;;;5050626;28;20037;-70
2021/07/29 02:42:12;;;;;;;4.25;3.85;;;16.10;99.90;;;;;;5047816;28;20033;-70
2021/07/29 02:44:39;;;;;;;5.15;3.50;;;16.20;99.90;;;;;;5030861;28;20080;-70
2021/07/29 02:47:04;;;;;;;3.90;3.60;;;16.10;99.90;;;;;;5035541;28;20079;-70
2021/07/29 02:49:30;;;;;;;4.75;3.90;;;16.10;99.90;;;;;;5051167;28;20024;-69
2021/07/29 02:51:56;;;;;;;4.82;3.78;;;16.10;99.90;;;;;;5050950;28;20553;-70
2021/07/29 02:54:21;;;;;;;3.88;3.58;;;16.10;99.90;;;;;;5051723;28;20044;-70
2021/07/29 02:56:47;;;;;;;5.43;4.32;;;16.00;99.90;;;;;;5037445;28;20457;-70
2021/07/29 02:59:13;;;;;;;7.55;4.40;;;16.00;99.90;;;;;;5032507;28;20108;-70
2021/07/29 03:01:38;;;;;;;4.28;3.88;;;16.00;99.90;;;;;;5050277;28;20094;-69
2021/07/29 03:04:04;;;;;;;5.18;3.50;;;15.90;99.90;;;;;;5051287;28;20463;-70
2021/07/29 03:06:30;;;;;;;4.45;3.97;;;15.90;99.90;;;;;;5040448;28;20025;-69
2021/07/29 03:08:57;;;;;;;5.47;4.47;;;15.90;99.90;;;;;;5031034;28;20040;-69
2021/07/29 03:11:23;;;;;;;5.40;3.45;;;15.90;99.90;;;;;;5043524;28;20351;-70
2021/07/29 03:13:49;;;;;;;4.68;4.18;;;15.90;99.90;;;;;;5050568;28;20028;-70
2021/07/29 03:16:14;;;;;;;7.13;3.88;;;15.90;99.90;;;;;;5049998;28;20028;-71
2021/07/29 03:18:40;;;;;;;4.95;3.83;;;15.90;99.90;;;;;;5050280;28;20025;-69
2021/07/29 03:21:06;;;;;;;4.22;3.83;;;15.90;99.90;;;;;;5044235;28;20107;-70
2021/07/29 03:23:33;;;;;;;7.07;4.18;;;15.90;99.90;;;;;;5031311;28;20386;-70
2021/07/29 03:25:58;;;;;;;5.18;4.22;;;16.00;99.90;;;;;;5039580;28;20033;-70
2021/07/29 03:28:24;;;;;;;5.80;3.90;;;16.00;99.90;;;;;;5054208;28;20025;-70
2021/07/29 03:30:51;;;;;;;4.40;3.80;;;16.00;99.90;;;;;;5053655;28;20078;-70
2021/07/29 03:33:17;;;;;;;4.38;3.83;;;16.10;99.90;;;;;;5054514;28;20040;-69
2021/07/29 03:35:42;;;;;;;4.22;3.63;;;16.00;99.90;;;;;;5053238;28;20025;-69
2021/07/29 03:38:09;;;;;;;4.25;3.60;;;16.00;99.90;;;;;;5034315;28;20080;-70
2021/07/29 03:40:35;;;;;;;4.78;3.63;;;16.10;99.90;;;;;;5034076;28;20578;-70
2021/07/29 03:43:02;;;;;;;5.10;3.90;;;16.10;99.90;;;;;;5034494;28;20044;-69
2021/07/29 03:45:32;;;;;;;5.10;3.42;;;16.10;99.90;;;;;;5033476;28;20030;-70
2021/07/29 03:47:58;;;;;;;5.53;3.83;;;16.10;99.90;;;;;;5052133;28;20492;-69
2021/07/29 03:50:24;;;;;;;4.30;3.90;;;16.20;99.90;;;;;;5040292;28;20095;-69
2021/07/29 03:52:50;;;;;;;4.25;3.40;;;16.20;99.90;;;;;;5033705;28;20029;-70
2021/07/29 03:55:16;;;;;;;4.30;3.75;;;16.20;99.90;;;;;;5049603;28;20489;-70
2021/07/29 03:57:41;;;;;;;3.70;3.40;;;16.20;99.90;;;;;;5036937;28;20417;-70
2021/07/29 04:00:08;;;;;;;4.38;3.95;;;16.20;99.90;;;;;;5034432;28;20025;-71
2021/07/29 04:02:35;;;;;;;7.10;3.50;;;16.20;99.90;;;;;;5033510;28;20030;-70
2021/07/29 04:05:02;;;;;;;4.07;3.67;;;16.20;99.90;;;;;;5033870;28;20390;-69
2021/07/29 04:07:27;;;;;;;4.50;3.53;;;16.20;99.90;;;;;;5051642;28;20402;-70
2021/07/29 04:09:53;;;;;;;4.55;3.53;;;16.30;99.90;;;;;;5040355;28;20033;-70
2021/07/29 04:12:19;;;;;;;4.28;3.28;;;16.30;99.90;;;;;;5034044;28;20481;-70
2021/07/29 04:14:45;;;;;;;4.35;3.60;;;16.40;99.90;;;;;;5033302;28;20372;-70
2021/07/29 04:17:11;;;;;;;3.80;3.20;;;16.40;99.90;;;;;;5048885;28;20041;-70
2021/07/29 04:19:37;;;;;;;4.28;3.17;;;16.50;99.90;;;;;;5053179;28;20875;-70
2021/07/29 04:22:06;;;;;;;3.45;3.00;;;16.50;99.90;;;;;;5048954;28;20025;-70
2021/07/29 04:24:32;;;;;;;4.10;3.28;;;16.50;99.90;;;;;;5033927;28;20127;-70
2021/07/29 04:27:00;;;;;;;3.95;3.03;;;16.40;99.90;;;;;;5043789;28;20432;-70
2021/07/29 04:29:26;;;;;;;4.20;3.17;;;16.50;99.90;;;;;;5046690;28;20072;-70
2021/07/29 04:31:53;;;;;;;3.75;2.72;;;16.50;99.90;;;;;;5033104;28;20550;-69
2021/07/29 04:34:19;;;;;;;4.85;2.90;;;16.60;99.90;;;;;;5033175;28;20029;-69
2021/07/29 04:36:46;;;;;;;3.67;3.28;;;16.60;99.90;;;;;;5040785;28;20078;-69
2021/07/29 04:39:11;;;;;;;2.78;2.58;;;16.70;99.90;;;;;;5053318;28;20125;-70
2021/07/29 04:41:41;;;;;;;2.95;2.63;;;16.80;99.90;;;;;;5052462;28;20124;-70
2021/07/29 04:44:12;;;;;;;4.60;2.92;;;16.80;99.90;;;;;;5053068;28;20116;-70
2021/07/29 04:46:40;;;;;;;4.28;3.10;;;16.70;99.90;;;;;;5047071;28;20026;-69
2021/07/29 04:49:08;;;;;;;4.60;2.88;;;16.70;99.90;;;;;;5034118;28;20029;-69
2021/07/29 04:51:34;;;;;;;3.45;2.97;;;16.70;99.90;;;;;;5033247;28;20113;-70
2021/07/29 04:54:00;;;;;;;3.53;3.00;;;16.70;99.90;;;;;;5032649;28;20030;-69
2021/07/29 04:56:26;;;;;;;6.55;2.90;;;16.70;99.90;;;;;;5035960;28;20051;-70
2021/07/29 04:58:52;;;;;;;4.22;2.90;;;16.80;99.90;;;;;;5052357;28;20029;-70
2021/07/29 05:01:18;;;;;;;2.85;2.65;;;16.80;99.90;;;;;;5052444;28;20485;-70
2021/07/29 05:03:44;;;;;;;2.83;2.63;;;17.00;99.90;;;;;;5052029;28;20060;-70
2021/07/29 05:06:10;;;;;;;2.88;2.67;;;17.10;99.90;;;;;;5034278;28;20025;-69
2021/07/29 05:08:36;;;;;;;3.15;2.78;;;17.10;99.90;;;;;;5032970;28;20040;-69
2021/07/29 05:11:03;;;;;;;2.90;2.67;;;17.10;99.90;;;;;;5031110;28;20021;-70
2021/07/29 05:13:29;;;;;;;4.22;2.63;;;17.20;99.90;;;;;;5031572;28;20116;-70
2021/07/29 05:15:54;;;;;;;4.60;2.92;;;17.20;99.90;;;;;;5030789;28;20669;-70
2021/07/29 05:18:20;;;;;;;4.90;3.08;;;17.30;99.90;;;;;;5031509;28;20140;-70
2021/07/29 05:20:46;;;;;;;3.53;2.58;;;17.30;99.90;;;;;;5030597;28;20364;-70
2021/07/29 05:23:12;;;;;;;3.47;2.53;;;17.40;99.90;;;;;;5032586;28;20034;-70
2021/07/29 05:25:38;;;;;;;3.15;2.67;;;17.50;99.90;;;;;;5032151;28;20500;-70
2021/07/29 05:28:04;;;;;;;3.60;2.45;;;17.60;99.90;;;;;;5051847;28;20113;-70
2021/07/29 05:30:30;;;;;;;4.55;2.83;;;17.80;99.90;;;;;;5052383;28;20029;-70
2021/07/29 05:32:55;;;;;;;3.70;2.53;;;17.90;99.90;;;;;;5051571;28;20600;-71
2021/07/29 05:35:21;;;;;;;4.07;2.47;;;18.10;99.90;;;;;;5052062;28;20032;-70
2021/07/29 05:37:46;;;;;;;2.53;2.30;;;18.20;99.90;;;;;;5034342;28;20372;-70
2021/07/29 05:40:12;;;;;;;3.40;2.58;;;18.30;99.90;;;;;;5032506;28;20037;-70
2021/07/29 05:42:38;;;;;;;4.43;2.40;;;18.50;99.90;;;;;;5031869;28;20060;-70
2021/07/29 05:45:04;;;;;;;3.97;3.05;;;18.60;99.90;;;;;;5045585;28;20482;-70
2021/07/29 05:47:29;;;;;;;3.10;2.47;;;18.70;99.90;;;;;;5037334;28;20029;-70
2021/07/29 05:49:55;;;;;;;4.22;2.47;;;18.70;99.90;;;;;;5027425;28;20092;-70
2021/07/29 05:52:21;;;;;;;4.55;2.60;;;18.80;99.90;;;;;;5033477;28;20033;-72
2021/07/29 05:54:46;;;;;;;2.78;2.53;;;18.90;99.90;;;;;;5033054;28;20474;-69
2021/07/29 05:57:12;;;;;;;3.00;2.53;;;19.00;99.90;;;;;;5032486;28;20031;-70
2021/07/29 05:59:37;;;;;;;3.88;2.45;;;19.20;99.90;;;;;;5031429;28;20036;-70
2021/07/29 06:02:03;;;;;;;4.38;3.00;;;19.30;99.90;;;;;;5033103;28;20083;-69
2021/07/29 06:04:29;;;;;;;3.28;2.45;;;19.30;99.90;;;;;;5032238;28;20029;-68
2021/07/29 06:06:54;;;;;;;4.22;2.50;;;19.40;99.90;;;;;;5031723;28;20029;-67
2021/07/29 06:09:20;;;;;;;6.32;3.05;;;19.50;99.90;;;;;;5032024;28;20532;-67
2021/07/29 06:11:46;;;;;;;5.47;2.85;;;19.50;99.90;;;;;;5030991;28;20096;-69
2021/07/29 06:14:11;;;;;;;5.13;2.67;;;19.50;99.90;;;;;;5028160;28;20057;-70
2021/07/29 06:16:37;;;;;;;4.78;2.67;;;19.50;99.90;;;;;;5045113;28;20437;-69
2021/07/29 06:19:08;;;;;;;3.05;2.58;;;19.60;99.90;;;;;;5051265;28;20067;-69
2021/07/29 06:21:34;;;;;;;4.07;2.50;;;19.70;99.90;;;;;;5050252;28;20456;-70
2021/07/29 06:24:00;;;;;;;3.70;2.50;;;19.70;99.80;;;;;;5032816;28;20030;-70
2021/07/29 06:26:26;;;;;;;2.67;2.47;;;19.80;99.50;;;;;;5031031;28;20030;-70
2021/07/29 06:28:52;;;;;;;4.68;2.20;;;19.90;99.10;;;;;;5030754;28;20467;-70
2021/07/29 06:31:17;;;;;;;5.90;2.38;;;20.00;98.50;;;;;;5031585;28;20104;-70
2021/07/29 06:33:43;;;;;;;4.30;2.72;;;20.20;97.80;;;;;;5033452;28;20024;-70
2021/07/29 06:36:09;;;;;;;5.85;2.67;;;20.40;97.60;;;;;;5051189;28;20028;-70
2021/07/29 06:38:34;;;;;;;5.40;3.30;;;20.60;97.20;;;;;;5037323;28;20054;-70
2021/07/29 06:41:05;;;;;;;3.40;2.40;;;20.80;95.70;;;;;;5030656;28;20044;-69
2021/07/29 06:43:30;;;;;;;3.60;2.55;;;20.90;95.40;;;;;;5031541;28;20025;-70
2021/07/29 06:45:56;;;;;;;3.88;2.42;;;21.00;95.00;;;;;;5047656;28;20513;-73
2021/07/29 06:48:21;;;;;;;3.05;2.72;;;21.10;94.50;;;;;;5039726;28;20037;-73
2021/07/29 06:50:47;;;;;;;4.70;2.80;;;21.20;94.40;;;;;;5029019;28;20032;-75
2021/07/29 06:53:13;;;;;;;4.10;2.63;;;21.30;93.70;;;;;;5048417;28;20025;-74
2021/07/29 06:55:39;;;;;;;3.75;2.00;;;21.30;93.40;;;;;;5043408;28;20029;-77
2021/07/29 06:58:05;;;;;;;5.88;2.65;;;21.30;93.10;;;;;;5030020;28;20040;-74
2021/07/29 07:00:31;;;;;;;3.60;2.53;;;21.30;92.80;;;;;;5033744;28;20029;-74
2021/07/29 07:02:57;;;;;;;4.70;2.40;;;21.40;92.70;;;;;;5039421;28;20037;-74
2021/07/29 07:05:22;;;;;;;3.15;2.60;;;21.40;92.90;;;;;;5050972;28;20037;-74
2021/07/29 07:07:48;;;;;;;3.88;2.47;;;21.60;92.10;;;;;;5049501;28;20385;-74
2021/07/29 07:10:13;;;;;;;4.00;2.53;;;21.70;91.40;;;;;;5039123;28;20079;-73
2021/07/29 07:12:39;;;;;;;5.25;2.20;;;21.80;91.10;;;;;;5043767;28;20040;-77
2021/07/29 07:15:05;;;;;;;5.30;2.22;;;21.80;90.80;;;;;;5037075;28;20037;-74
2021/07/29 07:17:31;;;;;;;2.80;2.35;;;21.90;90.40;;;;;;5033579;28;20041;-72
2021/07/29 07:20:00;;;;;;;3.97;2.50;;;22.00;90.00;;;;;;5050909;28;20033;-72
2021/07/29 07:22:26;;;;;;;4.68;2.50;;;22.00;89.80;;;;;;5034541;28;20072;-72
2021/07/29 07:24:52;;;;;;;7.47;2.40;;;22.00;88.60;;;;;;5042523;28;20494;-73
2021/07/29 07:27:18;;;;;;;4.80;2.90;;;22.00;87.20;;;;;;5048311;28;20082;-72
2021/07/29 07:29:44;;;;;;;3.17;2.50;;;22.00;87.00;;;;;;5046807;28;20030;-78
2021/07/29 07:32:10;;;;;;;3.47;2.33;;;22.00;86.60;;;;;;5035456;28;20075;-72
2021/07/29 07:34:36;;;;;;;5.55;2.53;;;22.00;85.90;;;;;;5034517;28;20029;-72
2021/07/29 07:37:02;;;;;;;5.10;2.50;;;22.10;84.80;;;;;;5041276;28;20022;-73
2021/07/29 07:39:27;;;;;;;3.28;2.45;;;22.20;83.90;;;;;;5034578;28;20115;-71
2021/07/29 07:41:56;;;;;;;4.57;3.17;;;22.30;84.60;;;;;;5036614;28;20037;-71
2021/07/29 07:44:22;;;;;;;6.90;2.97;;;22.30;82.00;;;;;;5032867;28;20124;-69
2021/07/29 07:46:48;;;;;;;3.65;2.58;;;22.30;80.80;;;;;;5033588;28;20104;-73
2021/07/29 07:49:13;;;;;;;7.18;3.25;;;22.40;80.60;;;;;;5042052;28;20100;-74
2021/07/29 07:51:40;;;;;;;5.75;2.65;;;22.50;78.50;;;;;;5044617;28;20444;-74
2021/07/29 07:54:07;;;;;;;6.15;2.80;;;22.60;78.00;;;;;;5035320;28;20025;-74
2021/07/29 07:56:33;;;;;;;5.85;2.88;;;22.80;76.80;;;;;;5044248;28;20025;-81
2021/07/29 07:58:59;;;;;;;2.55;2.33;;;22.80;75.30;;;;;;5044834;28;20033;-87
2021/07/29 08:01:24;;;;;;;6.47;2.75;;;22.80;75.70;;;;;;5040303;28;20491;-91
2021/07/29 08:03:50;;;;;;;3.22;2.58;;;22.70;76.40;;;;;;5053228;28;20067;-84
2021/07/29 08:06:16;;;;;;;6.05;2.78;;;22.70;76.70;;;;;;5050211;28;20037;-87
2021/07/29 08:08:42;;;;;;;3.38;2.97;;;22.70;76.30;;;;;;5039942;28;20037;-88
2021/07/29 08:11:09;;;;;;;3.05;2.70;;;22.70;75.40;;;;;;5032653;28;20372;-86
2021/07/29 08:13:34;;;;;;;4.38;2.33;;;22.80;75.80;;;;;;5054156;28;20052;-84
2021/07/29 08:16:00;;;;;;;7.45;3.00;;;23.00;75.50;;;;;;5052691;28;20451;-76
2021/07/29 08:18:27;;;;;;;3.92;3.22;;;23.10;75.10;;;;;;5040179;28;20468;-80
2021/07/29 08:20:53;;;;;;;6.03;2.83;;;23.20;74.10;;;;;;5040722;28;20032;-79
2021/07/29 08:23:19;;;;;;;4.93;2.80;;;23.40;73.50;;;;;;5036393;28;20459;-74
2021/07/29 08:25:44;;;;;;;6.18;3.67;;;23.40;73.50;;;;;;5051178;28;20035;-74
2021/07/29 08:28:11;;;;;;;5.85;3.67;;;23.40;71.90;;;;;;5038074;28;20108;-72
2021/07/29 08:30:36;;;;;;;4.55;2.60;;;23.40;73.40;;;;;;5036060;28;20485;-72
2021/07/29 08:33:10;;;;;;;9.07;3.75;;;23.50;72.80;;;;;;5052844;28;20100;-73
2021/07/29 08:35:37;;;;;;;7.35;2.95;;;23.60;71.60;;;;;;5051660;28;20071;-73
2021/07/29 08:38:03;;;;;;;7.57;3.42;;;23.60;72.50;;;;;;5032408;28;20411;-73
2021/07/29 08:40:29;;;;;;;4.95;2.70;;;23.60;70.90;;;;;;5033422;28;20029;-73
2021/07/29 08:42:56;;;;;;;5.60;3.20;;;23.70;71.70;;;;;;5032702;28;20040;-74
2021/07/29 08:45:22;;;;;;;7.22;3.05;;;23.90;71.10;;;;;;5035673;28;20482;-75
2021/07/29 08:47:53;;;;;;;3.50;3.05;;;24.10;70.00;;;;;;5050952;28;20036;-72
2021/07/29 08:50:19;;;;;;;5.13;2.90;;;24.30;68.10;;;;;;5052855;28;20549;-72
2021/07/29 08:52:44;;;;;;;4.60;3.00;;;24.30;67.70;;;;;;5053331;28;20066;-71
2021/07/29 08:55:10;;;;;;;6.95;3.38;;;24.30;67.20;;;;;;5051916;28;20024;-70
2021/07/29 08:57:38;;;;;;;5.03;2.90;;;24.40;67.00;;;;;;5039777;28;20466;-71
2021/07/29 09:00:08;;;;;;;3.70;3.10;;;24.40;67.00;;;;;;5039112;28;20025;-70
2021/07/29 09:02:34;;;;;;;7.07;3.33;;;24.40;65.80;;;;;;5035319;28;20033;-70
2021/07/29 09:05:08;;;;;;;9.25;3.55;;;24.40;66.10;;;;;;5038995;28;20033;-70
2021/07/29 09:07:34;;;;;;;6.93;3.25;;;24.50;65.60;;;;;;5027450;28;20025;-70
2021/07/29 09:10:00;;;;;;;3.97;3.05;;;24.70;65.60;;;;;;5032016;28;20039;-70
2021/07/29 09:12:26;;;;;;;3.42;2.85;;;24.60;64.20;;;;;;5041879;28;20059;-70
2021/07/29 09:14:54;;;;;;;3.75;3.28;;;24.30;65.40;;;;;;5040132;28;20040;-70
2021/07/29 09:17:22;;;;;;;4.30;3.00;;;24.10;65.50;;;;;;5032498;28;20397;-70
2021/07/29 09:19:53;;;;;;;6.30;3.03;;;24.30;65.00;;;;;;5038156;28;20025;-70
2021/07/29 09:22:24;;;;;;;3.83;3.10;;;24.50;64.50;;;;;;5052154;28;20029;-70
2021/07/29 09:25:09;;;;;;;4.82;3.30;;;24.70;64.80;;;;;;5036770;28;20025;-70
2021/07/29 09:27:38;;;;;;;6.68;3.42;;;25.10;63.90;;;;;;5051577;28;20470;-70
2021/07/29 09:30:17;;;;;;;4.25;3.08;;;25.30;63.40;;;;;;5050919;28;20087;-70
2021/07/29 09:32:58;;;;;;;4.10;3.10;;;25.60;62.40;;;;;;5042220;28;20038;-71
2021/07/29 09:35:32;;;;;;;3.08;2.58;;;25.80;60.90;;;;;;5037998;28;20047;-71
2021/07/29 09:38:21;;;;;;;3.78;3.08;;;25.80;60.50;;;;;;5031021;28;20525;-70
2021/07/29 09:41:05;;;;;;;5.03;2.92;;;25.70;60.40;;;;;;5032628;28;20069;-70
2021/07/29 09:43:36;;;;;;;5.43;3.38;;;25.20;60.70;;;;;;5043143;28;20086;-70
2021/07/29 09:46:19;;;;;;;5.20;3.00;;;24.90;60.80;;;;;;5036182;28;20037;-70
2021/07/29 09:48:46;;;;;;;4.25;3.03;;;24.50;61.90;;;;;;5033388;28;20036;-70
2021/07/29 09:51:12;;;;;;;8.30;3.53;;;24.30;61.90;;;;;;5031688;28;20386;-70
2021/07/29 09:53:38;;;;;;;2.90;2.60;;;24.00;62.60;;;;;;5032315;28;20048;-70
2021/07/29 09:56:08;;;;;;;6.13;3.38;;;23.90;62.70;;;;;;5031225;28;20094;-70
2021/07/29 09:58:39;;;;;;;5.57;3.45;;;23.70;62.70;;;;;;5026092;28;20028;-70
2021/07/29 10:01:06;;;;;;;5.43;3.97;;;23.60;62.90;;;;;;5031945;28;20498;-70
2021/07/29 10:03:35;;;;;;;7.57;3.70;;;23.70;62.60;;;;;;5050443;28;20064;-70
2021/07/29 10:06:15;;;;;;;4.30;3.10;;;23.90;62.40;;;;;;5049385;28;20036;-70
2021/07/29 10:08:42;;;;;;;;;;;24.00;61.50;;;;;;5033669;28;20112;-69
2021/07/29 10:11:13;;;;;;;4.53;3.00;;;24.10;62.60;;;;;;5031153;28;19920;-70
2021/07/29 10:13:41;;;;;;;4.40;3.25;;;24.30;61.90;;;;;;5032128;28;20052;-70
2021/07/29 10:16:09;;;;;;;4.90;3.40;;;24.50;61.60;;;;;;5040117;28;20147;-69
2021/07/29 10:19:02;;;;;;;3.33;3.03;;;24.60;60.90;;;;;;5051276;28;20472;-69
2021/07/29 10:21:30;;;;;;;6.75;3.60;;;24.70;60.60;;;;;;5012286;28;20069;-69
2021/07/29 10:23:58;;;;;;;4.75;3.53;;;24.90;59.80;;;;;;5030371;28;20033;-69
2021/07/29 10:26:24;;;;;;;4.43;3.20;;;25.30;59.40;;;;;;5048721;28;20489;-70
2021/07/29 10:28:50;;;;;;;3.95;2.95;;;25.50;59.50;;;;;;5049584;28;20163;-69
2021/07/29 10:31:17;;;;;;;3.97;3.28;;;25.60;58.90;;;;;;5050677;28;20057;-69
2021/07/29 10:33:45;;;;;;;5.03;3.40;;;25.80;58.20;;;;;;5032419;28;20108;-70
2021/07/29 10:36:48;;;;;;;4.18;3.75;;;25.80;57.20;;;;;;5034566;28;20041;-69
2021/07/29 10:39:14;;;;;;;3.85;3.22;;;25.80;57.80;;;;;;5036332;28;20046;-69
2021/07/29 10:41:40;;;;;;;4.03;3.50;;;25.90;57.70;;;;;;5051548;28;20378;-69
2021/07/29 10:44:07;;;;;;;4.47;3.50;;;26.10;56.30;;;;;;5052475;28;20546;-69
2021/07/29 10:46:54;;;;;;;4.38;3.78;;;26.30;58.30;;;;;;5055946;28;20115;-70
2021/07/29 10:49:20;;;;;;;5.80;3.88;;;26.50;56.10;;;;;;5041781;28;20471;-69
2021/07/29 10:52:07;;;;;;;4.30;3.67;;;26.80;55.70;;;;;;5054896;28;20393;-69
2021/07/29 10:54:37;;;;;;;6.25;4.10;;;26.90;53.80;;;;;;5036229;28;20042;-69
2021/07/29 10:57:06;;;;;;;4.40;3.75;;;27.10;53.90;;;;;;5041068;28;20021;-69
2021/07/29 10:59:33;;;;;;;3.55;3.25;;;27.30;54.50;;;;;;5042512;28;20593;-69
2021/07/29 11:02:05;;;;;;;4.88;3.65;;;27.50;54.50;;;;;;5047575;28;20120;-70
2021/07/29 11:04:32;;;;;;;6.68;4.30;;;27.60;52.60;;;;;;5046390;28;20555;-70
2021/07/29 11:07:05;;;;;;;4.18;3.67;;;27.40;52.70;;;;;;5034943;28;20034;-69
2021/07/29 11:09:32;;;;;;;4.30;3.90;;;27.10;54.90;;;;;;5035563;28;20498;-69
2021/07/29 11:11:59;;;;;;;9.95;4.15;;;26.90;53.80;;;;;;5037693;28;20029;-70
2021/07/29 11:14:33;;;;;;;5.18;4.18;;;26.70;54.00;;;;;;5034855;28;20068;-69
2021/07/29 11:17:01;;;;;;;5.38;4.13;;;26.30;52.40;;;;;;5035597;28;20033;-69
2021/07/29 11:19:28;;;;;;;4.20;3.80;;;26.10;54.40;;;;;;5038453;28;20017;-70
2021/07/29 11:22:04;;;;;;;4.22;3.35;;;26.20;54.30;;;;;;5040971;28;20363;-70
2021/07/29 11:24:30;;;;;;;4.47;3.95;;;26.40;52.90;;;;;;5051717;28;20079;-70
2021/07/29 11:26:57;;;;;;;3.97;3.58;;;26.60;53.10;;;;;;5038636;28;20029;-70
2021/07/29 11:29:23;;;;;;;7.57;3.90;;;26.80;53.00;;;;;;5043592;28;20021;-70
2021/07/29 11:31:53;;;;;;;5.15;3.85;;;27.10;52.60;;;;;;5054236;28;20032;-70
2021/07/29 11:34:19;;;;;;;4.97;3.92;;;27.20;52.30;;;;;;5037658;28;20038;-70
2021/07/29 11:36:55;;;;;;;6.65;4.13;;;27.40;52.50;;;;;;5035165;28;20034;-70
2021/07/29 11:39:20;;;;;;;5.07;3.38;;;27.70;52.90;;;;;;5034761;28;20041;-70
2021/07/29 11:41:51;;;;;;;5.68;3.78;;;27.90;52.30;;;;;;5034181;28;20087;-70
2021/07/29 11:44:17;;;;;;;9.30;3.95;;;28.20;50.90;;;;;;5038341;28;20033;-70
2021/07/29 11:46:56;;;;;;;4.20;3.80;;;28.30;49.70;;;;;;5034410;28;20034;-70
2021/07/29 11:49:23;;;;;;;4.88;3.80;;;28.20;49.60;;;;;;5041282;28;20437;-70
2021/07/29 11:52:05;;;;;;;3.97;3.65;;;28.10;50.20;;;;;;5040722;28;20025;-70
2021/07/29 11:54:31;;;;;;;5.13;4.05;;;28.10;50.40;;;;;;5034309;28;20029;-70
2021/07/29 11:56:58;;;;;;;6.10;3.53;;;28.10;50.50;;;;;;5033614;28;20029;-70
2021/07/29 11:59:24;;;;;;;4.32;3.28;;;28.10;50.40;;;;;;5052363;28;20048;-70
2021/07/29 12:01:50;;;;;;;4.38;3.78;;;28.30;50.50;;;;;;5049882;28;20471;-70
2021/07/29 12:04:17;;;;;;;3.85;3.47;;;28.30;50.70;;;;;;5034700;28;20483;-70
2021/07/29 12:06:44;;;;;;;3.88;3.55;;;28.40;50.40;;;;;;5034278;28;20033;-70
2021/07/29 12:09:10;;;;;;;4.22;3.63;;;28.60;50.60;;;;;;5033380;28;20513;-70
2021/07/29 12:11:35;;;;;;;4.03;3.35;;;28.30;49.90;;;;;;5037712;28;20056;-70
2021/07/29 12:14:02;;;;;;;3.92;3.55;;;28.10;50.40;;;;;;5050987;28;20052;-70
2021/07/29 12:16:43;;;;;;;7.10;4.35;;;27.90;50.20;;;;;;5043086;28;20028;-70
2021/07/29 12:19:08;;;;;;;;;;;27.60;51.50;;;;;;5053551;28;20112;-70
2021/07/29 12:21:34;;;;;;;5.03;4.53;;;27.50;51.30;;;;;;5041079;28;20012;-69
2021/07/29 12:24:00;;;;;;;4.55;3.60;;;27.20;51.60;;;;;;5039091;28;20033;-69
2021/07/29 12:26:25;;;;;;;6.03;3.78;;;27.00;51.80;;;;;;5053867;28;20477;-69
2021/07/29 12:28:51;;;;;;;6.35;4.00;;;27.10;52.30;;;;;;5051920;28;20042;-69
2021/07/29 12:31:17;;;;;;;3.75;3.45;;;27.40;52.10;;;;;;5053150;28;20052;-70
2021/07/29 12:34:00;;;;;;;6.38;3.83;;;27.70;50.60;;;;;;5037408;28;20037;-69
2021/07/29 12:36:45;;;;;;;6.18;4.00;;;28.20;49.80;;;;;;5033652;28;20179;-70
2021/07/29 12:39:12;;;;;;;4.05;3.40;;;28.80;48.60;;;;;;5032900;28;20080;-70
2021/07/29 12:41:40;;;;;;;6.05;3.92;;;29.30;49.30;;;;;;5034567;28;20029;-70
2021/07/29 12:44:07;;;;;;;6.63;3.80;;;29.80;48.20;;;;;;5050716;28;20128;-70
2021/07/29 12:46:32;;;;;;;4.18;3.78;;;30.10;48.90;;;;;;5036916;28;20159;-70
2021/07/29 12:48:58;;;;;;;4.28;3.38;;;30.10;47.60;;;;;;5033090;28;20057;-69
2021/07/29 12:51:41;;;;;;;3.70;3.20;;;30.00;48.70;;;;;;5041691;28;20029;-70